Wetterdaten: Woche 04.07.11 - 10.07.11 (KW27)
Datum Zeit Temperatur Luftfeuchte Luftdruck Niederschlag Windrichtung Sonnenschein Solar Wind
04.07.2011 00:00 12,7 C 86 % 1012,9 hPa 0,0 l/m N 0,00 h 0 W/m 0,5 km/h (0 Bft)
04.07.2011 01:00 11,9 C 88 % 1013,0 hPa 0,0 l/m N 0,00 h 0 W/m 0,9 km/h (0 Bft)
04.07.2011 02:00 11,0 C 91 % 1012,8 hPa 0,0 l/m N 0,00 h 0 W/m 1,2 km/h (1 Bft)
04.07.2011 03:00 10,7 C 91 % 1012,4 hPa 0,0 l/m NO 0,00 h 0 W/m 3,2 km/h (1 Bft)
04.07.2011 04:00 10,4 C 91 % 1012,4 hPa 0,0 l/m NO 0,00 h 0 W/m 3,3 km/h (1 Bft)
04.07.2011 05:00 10,2 C 92 % 1012,5 hPa 0,0 l/m N 0,00 h 8 W/m 1,1 km/h (0 Bft)
04.07.2011 06:00 10,5 C 91 % 1012,6 hPa 0,0 l/m N 0,25 h 72 W/m 2,4 km/h (1 Bft)
04.07.2011 07:00 12,4 C 85 % 1012,7 hPa 0,0 l/m N-NO 1,00 h 231 W/m 4,9 km/h (1 Bft)
04.07.2011 08:00 15,2 C 76 % 1012,9 hPa 0,0 l/m N-NO 1,00 h 397 W/m 4,4 km/h (1 Bft)
04.07.2011 09:00 17,6 C 65 % 1012,6 hPa 0,0 l/m N-NO 1,00 h 566 W/m 7,5 km/h (2 Bft)
04.07.2011 10:00 19,7 C 57 % 1012,5 hPa 0,0 l/m O 1,00 h 720 W/m 9,5 km/h (2 Bft)
04.07.2011 11:00 21,0 C 51 % 1012,1 hPa 0,0 l/m NO 1,00 h 843 W/m 7,6 km/h (2 Bft)
04.07.2011 12:00 22,4 C 46 % 1012,0 hPa 0,0 l/m O 1,00 h 917 W/m 9,0 km/h (2 Bft)
04.07.2011 13:00 23,2 C 42 % 1011,8 hPa 0,0 l/m O-NO 0,75 h 715 W/m 10,7 km/h (2 Bft)
04.07.2011 14:00 24,1 C 39 % 1011,7 hPa 0,0 l/m W-NW 1,00 h 926 W/m 6,7 km/h (2 Bft)
04.07.2011 15:00 25,3 C 36 % 1011,6 hPa 0,0 l/m SO 1,00 h 855 W/m 9,9 km/h (2 Bft)
04.07.2011 16:00 25,4 C 32 % 1011,2 hPa 0,0 l/m O-NO 1,00 h 746 W/m 9,4 km/h (2 Bft)
04.07.2011 17:00 25,8 C 32 % 1010,9 hPa 0,0 l/m O-NO 1,00 h 600 W/m 7,8 km/h (2 Bft)
04.07.2011 18:00 25,7 C 30 % 1010,5 hPa 0,0 l/m O 1,00 h 429 W/m 7,8 km/h (2 Bft)
04.07.2011 19:00 24,9 C 35 % 1010,6 hPa 0,0 l/m O-SO 1,00 h 231 W/m 7,8 km/h (2 Bft)
04.07.2011 20:00 22,3 C 51 % 1010,8 hPa 0,0 l/m O 0,08 h 42 W/m 5,1 km/h (1 Bft)
04.07.2011 21:00 18,7 C 67 % 1011,2 hPa 0,0 l/m N 0,08 h 8 W/m 2,0 km/h (1 Bft)
04.07.2011 22:00 17,5 C 71 % 1011,6 hPa 0,0 l/m NO 0,00 h 0 W/m 2,7 km/h (1 Bft)
04.07.2011 23:00 16,6 C 78 % 1011,9 hPa 0,0 l/m N 0,00 h 0 W/m 2,4 km/h (1 Bft)
05.07.2011 00:00 15,9 C 85 % 1012,1 hPa 0,0 l/m N 0,00 h 0 W/m 3,2 km/h (1 Bft)
05.07.2011 01:00 15,4 C 89 % 1012,0 hPa 0,0 l/m NO 0,00 h 0 W/m 4,0 km/h (1 Bft)
05.07.2011 02:00 14,9 C 91 % 1011,6 hPa 0,0 l/m NO 0,00 h 0 W/m 3,6 km/h (1 Bft)
05.07.2011 03:00 14,5 C 93 % 1011,7 hPa 0,0 l/m N 0,00 h 0 W/m 2,8 km/h (1 Bft)
05.07.2011 04:00 14,0 C 95 % 1011,7 hPa 0,0 l/m N 0,00 h 0 W/m 1,5 km/h (1 Bft)
05.07.2011 05:00 13,4 C 96 % 1011,9 hPa 0,0 l/m N 0,00 h 8 W/m 1,2 km/h (1 Bft)
05.07.2011 06:00 13,7 C 97 % 1012,0 hPa 0,0 l/m N 0,00 h 42 W/m 0,8 km/h (0 Bft)
05.07.2011 07:00 15,0 C 95 % 1012,2 hPa 0,0 l/m N 0,92 h 193 W/m 1,1 km/h (0 Bft)
05.07.2011 08:00 17,5 C 87 % 1012,2 hPa 0,0 l/m NO 1,00 h 356 W/m 1,6 km/h (1 Bft)
05.07.2011 09:00 19,3 C 78 % 1012,1 hPa 0,0 l/m S-SO 1,00 h 532 W/m 5,1 km/h (1 Bft)
05.07.2011 10:00 21,2 C 66 % 1011,9 hPa 0,0 l/m S-SO 1,00 h 685 W/m 5,9 km/h (2 Bft)
05.07.2011 11:00 22,6 C 60 % 1011,8 hPa 0,0 l/m O-SO 1,00 h 808 W/m 8,3 km/h (2 Bft)
05.07.2011 12:00 24,1 C 55 % 1011,5 hPa 0,0 l/m S 1,00 h 895 W/m 10,2 km/h (2 Bft)
05.07.2011 13:00 25,1 C 50 % 1011,0 hPa 0,0 l/m S-SO 0,75 h 706 W/m 12,8 km/h (3 Bft)
05.07.2011 14:00 25,6 C 49 % 1010,4 hPa 0,0 l/m S 0,92 h 839 W/m 13,6 km/h (3 Bft)
05.07.2011 15:00 25,9 C 44 % 1010,1 hPa 0,0 l/m W-SW 0,67 h 640 W/m 12,6 km/h (3 Bft)
05.07.2011 16:00 25,5 C 47 % 1009,7 hPa 0,0 l/m W-SW 0,33 h 376 W/m 13,3 km/h (3 Bft)
05.07.2011 17:00 25,6 C 44 % 1009,3 hPa 0,0 l/m W-SW 0,67 h 451 W/m 9,5 km/h (2 Bft)
05.07.2011 18:00 25,6 C 40 % 1008,9 hPa 0,0 l/m W-SW 0,83 h 348 W/m 12,0 km/h (2 Bft)
05.07.2011 19:00 24,4 C 44 % 1008,8 hPa 0,0 l/m SW 0,58 h 162 W/m 7,1 km/h (2 Bft)
05.07.2011 20:00 21,9 C 56 % 1009,0 hPa 0,0 l/m N-NW 0,08 h 49 W/m 1,5 km/h (1 Bft)
05.07.2011 21:00 19,7 C 66 % 1009,1 hPa 0,0 l/m N 0,08 h 9 W/m 0,9 km/h (0 Bft)
05.07.2011 22:00 17,4 C 77 % 1009,1 hPa 0,0 l/m N 0,00 h 0 W/m 0,0 km/h (0 Bft)
05.07.2011 23:00 16,5 C 82 % 1009,1 hPa 0,0 l/m N 0,00 h 0 W/m 0,0 km/h (0 Bft)
06.07.2011 00:00 15,5 C 85 % 1009,2 hPa 0,0 l/m N 0,00 h 0 W/m 0,0 km/h (0 Bft)
06.07.2011 01:00 14,4 C 90 % 1009,1 hPa 0,0 l/m N 0,00 h 0 W/m 0,9 km/h (0 Bft)
06.07.2011 02:00 13,8 C 91 % 1009,1 hPa 0,0 l/m N 0,00 h 0 W/m 0,4 km/h (0 Bft)
06.07.2011 03:00 13,2 C 92 % 1009,0 hPa 0,0 l/m N 0,00 h 0 W/m 0,1 km/h (0 Bft)
06.07.2011 04:00 12,8 C 93 % 1008,8 hPa 0,0 l/m N 0,00 h 0 W/m 0,0 km/h (0 Bft)
06.07.2011 05:00 12,5 C 94 % 1008,6 hPa 0,0 l/m N 0,00 h 8 W/m 0,0 km/h (0 Bft)
06.07.2011 06:00 13,1 C 92 % 1008,8 hPa 0,0 l/m N 0,00 h 44 W/m 0,1 km/h (0 Bft)
06.07.2011 07:00 14,8 C 86 % 1008,8 hPa 0,0 l/m N 0,75 h 204 W/m 0,9 km/h (0 Bft)
06.07.2011 08:00 18,6 C 75 % 1009,0 hPa 0,0 l/m O-SO 1,00 h 381 W/m 3,9 km/h (1 Bft)
06.07.2011 09:00 21,3 C 66 % 1008,8 hPa 0,0 l/m S-SO 0,75 h 461 W/m 9,1 km/h (2 Bft)
06.07.2011 10:00 22,6 C 63 % 1008,6 hPa 0,0 l/m S-SW 0,75 h 547 W/m 12,4 km/h (3 Bft)
06.07.2011 11:00 23,1 C 60 % 1008,4 hPa 0,0 l/m SW 0,33 h 414 W/m 14,2 km/h (3 Bft)
06.07.2011 12:00 25,4 C 50 % 1008,0 hPa 0,0 l/m W-SW 0,92 h 934 W/m 13,6 km/h (3 Bft)
06.07.2011 13:00 26,5 C 44 % 1007,8 hPa 0,0 l/m SW 0,75 h 773 W/m 14,1 km/h (3 Bft)
06.07.2011 14:00 26,9 C 37 % 1007,6 hPa 0,0 l/m W 0,75 h 809 W/m 16,4 km/h (3 Bft)
06.07.2011 15:00 26,4 C 39 % 1007,6 hPa 0,0 l/m W 0,25 h 348 W/m 15,6 km/h (3 Bft)
06.07.2011 16:00 24,9 C 46 % 1007,7 hPa 0,0 l/m W-SW 0,17 h 239 W/m 7,2 km/h (2 Bft)
06.07.2011 17:00 25,9 C 43 % 1007,6 hPa 0,0 l/m N 0,58 h 467 W/m 12,8 km/h (3 Bft)
06.07.2011 18:00 25,1 C 46 % 1007,6 hPa 0,0 l/m N-NO 0,42 h 249 W/m 13,3 km/h (3 Bft)
06.07.2011 19:00 23,5 C 54 % 1007,8 hPa 0,0 l/m N 0,08 h 114 W/m 9,5 km/h (2 Bft)
06.07.2011 20:00 22,0 C 61 % 1008,3 hPa 0,0 l/m N 0,00 h 42 W/m 5,8 km/h (1 Bft)
06.07.2011 21:00 19,9 C 71 % 1008,7 hPa 0,0 l/m N 0,00 h 7 W/m 1,3 km/h (1 Bft)
06.07.2011 22:00 18,6 C 75 % 1009,3 hPa 0,0 l/m N 0,00 h 0 W/m 2,3 km/h (1 Bft)
06.07.2011 23:00 18,2 C 79 % 1009,7 hPa 0,0 l/m N 0,00 h 0 W/m 1,3 km/h (1 Bft)
07.07.2011 00:00 17,5 C 82 % 1009,8 hPa 0,0 l/m N 0,00 h 0 W/m 0,5 km/h (0 Bft)
07.07.2011 01:00 16,5 C 87 % 1009,6 hPa 0,0 l/m N 0,00 h 0 W/m 0,3 km/h (0 Bft)
07.07.2011 02:00 15,7 C 90 % 1009,5 hPa 0,0 l/m N 0,00 h 0 W/m 0,7 km/h (0 Bft)
07.07.2011 03:00 15,1 C 91 % 1009,2 hPa 0,0 l/m N 0,00 h 0 W/m 1,1 km/h (0 Bft)
07.07.2011 04:00 16,0 C 86 % 1009,5 hPa 0,0 l/m O-NO 0,00 h 0 W/m 5,2 km/h (1 Bft)
07.07.2011 05:00 15,3 C 88 % 1009,0 hPa 0,0 l/m N-NO 0,00 h 12 W/m 5,7 km/h (1 Bft)
07.07.2011 06:00 15,4 C 89 % 1009,0 hPa 0,0 l/m NW 0,00 h 20 W/m 7,8 km/h (2 Bft)
07.07.2011 07:00 15,4 C 93 % 1008,7 hPa 2,4 l/m O 0,17 h 89 W/m 7,0 km/h (2 Bft)
07.07.2011 08:00 16,6 C 91 % 1009,2 hPa 0,0 l/m NW 0,42 h 210 W/m 4,5 km/h (1 Bft)
07.07.2011 09:00 17,1 C 90 % 1009,2 hPa 0,0 l/m N-NO 0,17 h 209 W/m 7,1 km/h (2 Bft)
07.07.2011 10:00 18,6 C 86 % 1008,9 hPa 0,0 l/m N 0,17 h 331 W/m 3,7 km/h (1 Bft)
07.07.2011 11:00 20,7 C 77 % 1008,7 hPa 0,0 l/m NW 0,92 h 718 W/m 6,3 km/h (2 Bft)
07.07.2011 12:00 22,7 C 69 % 1007,9 hPa 0,0 l/m NO 1,00 h 848 W/m 8,2 km/h (2 Bft)
07.07.2011 13:00 24,7 C 61 % 1007,2 hPa 0,0 l/m O-NO 1,00 h 885 W/m 9,7 km/h (2 Bft)
07.07.2011 14:00 26,4 C 55 % 1006,4 hPa 0,0 l/m O 1,00 h 859 W/m 13,0 km/h (3 Bft)
07.07.2011 15:00 27,4 C 51 % 1005,5 hPa 0,0 l/m O-SO 1,00 h 805 W/m 15,2 km/h (3 Bft)
07.07.2011 16:00 27,8 C 49 % 1004,6 hPa 0,0 l/m O-NO 1,00 h 709 W/m 19,8 km/h (4 Bft)
07.07.2011 17:00 26,4 C 54 % 1003,8 hPa 0,0 l/m O-SO 0,00 h 142 W/m 14,4 km/h (3 Bft)
07.07.2011 18:00 23,6 C 61 % 1004,3 hPa 0,0 l/m N 0,00 h 108 W/m 18,4 km/h (3 Bft)
07.07.2011 19:00 16,1 C 85 % 1005,9 hPa 0,4 l/m N-NW 0,50 h 174 W/m 23,9 km/h (4 Bft)
07.07.2011 20:00 15,3 C 86 % 1007,8 hPa 0,0 l/m N-NO 0,00 h 16 W/m 14,0 km/h (3 Bft)
07.07.2011 21:00 15,1 C 88 % 1007,8 hPa 0,0 l/m NO 0,08 h 11 W/m 8,4 km/h (2 Bft)
07.07.2011 22:00 15,0 C 91 % 1008,1 hPa 0,2 l/m N 0,00 h 0 W/m 2,5 km/h (1 Bft)
07.07.2011 23:00 14,7 C 94 % 1008,4 hPa 2,0 l/m W-SW 0,00 h 0 W/m 4,7 km/h (1 Bft)
08.07.2011 00:00 14,5 C 96 % 1007,6 hPa 1,6 l/m W-NW 0,00 h 0 W/m 5,2 km/h (1 Bft)
08.07.2011 01:00 14,2 C 97 % 1008,1 hPa 4,2 l/m W 0,00 h 0 W/m 6,8 km/h (2 Bft)
08.07.2011 02:00 14,1 C 97 % 1008,7 hPa 7,2 l/m W-NW 0,00 h 0 W/m 7,7 km/h (2 Bft)
08.07.2011 03:00 13,7 C 96 % 1011,1 hPa 5,2 l/m W 0,00 h 0 W/m 22,0 km/h (4 Bft)
08.07.2011 04:00 12,6 C 94 % 1012,1 hPa 0,8 l/m W 0,00 h 0 W/m 12,7 km/h (3 Bft)
08.07.2011 05:00 12,5 C 97 % 1011,8 hPa 0,6 l/m W-SW 0,00 h 0 W/m 5,2 km/h (1 Bft)
08.07.2011 06:00 12,7 C 98 % 1012,2 hPa 0,2 l/m SW 0,00 h 13 W/m 13,6 km/h (3 Bft)
08.07.2011 07:00 12,6 C 97 % 1012,4 hPa 0,2 l/m SW 0,00 h 29 W/m 12,4 km/h (3 Bft)
08.07.2011 08:00 13,7 C 97 % 1012,7 hPa 0,0 l/m SW 0,50 h 279 W/m 13,4 km/h (3 Bft)
08.07.2011 09:00 15,7 C 88 % 1012,6 hPa 0,0 l/m W 0,67 h 390 W/m 11,8 km/h (2 Bft)
08.07.2011 10:00 16,9 C 80 % 1012,6 hPa 0,0 l/m W-SW 0,50 h 441 W/m 10,7 km/h (2 Bft)
08.07.2011 11:00 18,5 C 72 % 1012,5 hPa 0,0 l/m W-SW 0,92 h 841 W/m 7,9 km/h (2 Bft)
08.07.2011 12:00 19,7 C 67 % 1012,4 hPa 0,0 l/m W-NW 0,67 h 782 W/m 8,3 km/h (2 Bft)
08.07.2011 13:00 21,2 C 62 % 1012,1 hPa 0,0 l/m SO 0,58 h 744 W/m 10,2 km/h (2 Bft)
08.07.2011 14:00 22,7 C 58 % 1011,8 hPa 0,0 l/m S-SO 1,00 h 926 W/m 11,0 km/h (2 Bft)
08.07.2011 15:00 23,5 C 55 % 1011,4 hPa 0,0 l/m SO 1,00 h 854 W/m 10,9 km/h (2 Bft)
08.07.2011 16:00 23,7 C 52 % 1011,1 hPa 0,0 l/m O-SO 1,00 h 668 W/m 8,4 km/h (2 Bft)
08.07.2011 17:00 24,1 C 53 % 1010,9 hPa 0,0 l/m SO 0,58 h 444 W/m 9,9 km/h (2 Bft)
08.07.2011 18:00 22,9 C 58 % 1010,8 hPa 0,0 l/m NO 0,08 h 129 W/m 4,7 km/h (1 Bft)
08.07.2011 19:00 21,1 C 76 % 1011,5 hPa 0,2 l/m N 0,08 h 77 W/m 1,3 km/h (1 Bft)
08.07.2011 20:00 19,1 C 89 % 1011,9 hPa 0,2 l/m N 0,00 h 26 W/m 0,7 km/h (0 Bft)
08.07.2011 21:00 17,5 C 94 % 1012,2 hPa 0,0 l/m N 0,00 h 7 W/m 0,7 km/h (0 Bft)
08.07.2011 22:00 16,5 C 95 % 1012,5 hPa 0,0 l/m N 0,00 h 0 W/m 0,5 km/h (0 Bft)
08.07.2011 23:00 16,9 C 95 % 1012,7 hPa 0,2 l/m O 0,00 h 0 W/m 2,0 km/h (1 Bft)
09.07.2011 00:00 16,8 C 96 % 1013,0 hPa 0,0 l/m O 0,00 h 0 W/m 1,9 km/h (1 Bft)
09.07.2011 01:00 16,1 C 97 % 1013,2 hPa 0,0 l/m N 0,00 h 0 W/m 1,3 km/h (1 Bft)
09.07.2011 02:00 16,1 C 98 % 1013,2 hPa 0,0 l/m N 0,00 h 0 W/m 0,5 km/h (0 Bft)
09.07.2011 03:00 16,0 C 98 % 1013,3 hPa 0,0 l/m N 0,00 h 0 W/m 0,1 km/h (0 Bft)
09.07.2011 04:00 15,9 C 98 % 1013,1 hPa 0,0 l/m N 0,00 h 0 W/m 0,0 km/h (0 Bft)
09.07.2011 05:00 15,9 C 98 % 1013,4 hPa 0,0 l/m N 0,00 h 5 W/m 0,3 km/h (0 Bft)
09.07.2011 06:00 16,0 C 98 % 1013,9 hPa 0,2 l/m N 0,00 h 12 W/m 0,0 km/h (0 Bft)
09.07.2011 07:00 16,5 C 98 % 1014,1 hPa 0,0 l/m N 0,00 h 54 W/m 0,8 km/h (0 Bft)
09.07.2011 08:00 17,2 C 97 % 1014,7 hPa 0,0 l/m S-SW 0,00 h 69 W/m 5,4 km/h (1 Bft)
09.07.2011 09:00 18,5 C 91 % 1015,2 hPa 0,0 l/m S-SO 0,00 h 158 W/m 7,1 km/h (2 Bft)
09.07.2011 10:00 20,0 C 87 % 1015,3 hPa 0,0 l/m S-SW 0,00 h 217 W/m 9,3 km/h (2 Bft)
09.07.2011 11:00 19,9 C 89 % 1015,6 hPa 0,0 l/m S-SW 0,00 h 134 W/m 11,0 km/h (2 Bft)
09.07.2011 12:00 20,8 C 85 % 1015,4 hPa 0,0 l/m S 0,00 h 301 W/m 12,5 km/h (3 Bft)
09.07.2011 13:00 24,1 C 70 % 1014,7 hPa 0,0 l/m S-SW 0,83 h 789 W/m 13,3 km/h (3 Bft)
09.07.2011 14:00 25,4 C 58 % 1014,5 hPa 0,0 l/m SW 1,00 h 886 W/m 13,0 km/h (3 Bft)
09.07.2011 15:00 26,4 C 52 % 1014,2 hPa 0,0 l/m W-SW 1,00 h 827 W/m 13,0 km/h (3 Bft)
09.07.2011 16:00 26,8 C 47 % 1014,0 hPa 0,0 l/m W-SW 0,75 h 613 W/m 11,0 km/h (2 Bft)
09.07.2011 17:00 24,8 C 55 % 1013,8 hPa 0,0 l/m S-SW 0,00 h 86 W/m 7,6 km/h (2 Bft)
09.07.2011 18:00 20,9 C 76 % 1014,9 hPa 1,6 l/m W-SW 0,00 h 32 W/m 17,1 km/h (3 Bft)
09.07.2011 19:00 18,6 C 91 % 1015,7 hPa 0,4 l/m N-NO 0,00 h 31 W/m 3,9 km/h (1 Bft)
09.07.2011 20:00 18,1 C 92 % 1015,5 hPa 0,0 l/m O-NO 0,00 h 22 W/m 5,6 km/h (1 Bft)
09.07.2011 21:00 17,4 C 95 % 1016,5 hPa 0,2 l/m S-SW 0,00 h 6 W/m 1,9 km/h (1 Bft)
09.07.2011 22:00 17,0 C 97 % 1017,6 hPa 4,0 l/m N-NW 0,00 h 0 W/m 2,8 km/h (1 Bft)
09.07.2011 23:00 16,8 C 98 % 1017,4 hPa 2,8 l/m SO 0,00 h 0 W/m 6,6 km/h (2 Bft)
10.07.2011 00:00 16,3 C 97 % 1017,4 hPa 0,0 l/m S 0,00 h 0 W/m 3,3 km/h (1 Bft)
10.07.2011 01:00 15,6 C 97 % 1017,7 hPa 0,0 l/m N 0,00 h 0 W/m 0,8 km/h (0 Bft)
10.07.2011 02:00 15,8 C 98 % 1017,4 hPa 0,0 l/m N 0,00 h 0 W/m 0,5 km/h (0 Bft)
10.07.2011 03:00 15,8 C 98 % 1016,9 hPa 0,0 l/m N 0,00 h 0 W/m 2,0 km/h (1 Bft)
10.07.2011 04:00 15,9 C 99 % 1016,6 hPa 0,2 l/m S-SW 0,00 h 0 W/m 3,3 km/h (1 Bft)
10.07.2011 05:00 16,2 C 99 % 1016,0 hPa 0,0 l/m O-SO 0,08 h 10 W/m 2,9 km/h (1 Bft)
10.07.2011 06:00 16,1 C 98 % 1016,2 hPa 0,0 l/m W-NW 0,00 h 25 W/m 3,9 km/h (1 Bft)
10.07.2011 07:00 16,5 C 98 % 1016,3 hPa 0,0 l/m NO 0,17 h 119 W/m 5,7 km/h (1 Bft)
10.07.2011 08:00 17,2 C 97 % 1016,0 hPa 0,0 l/m N-NO 0,33 h 233 W/m 9,1 km/h (2 Bft)
10.07.2011 09:00 19,2 C 90 % 1015,9 hPa 0,0 l/m N-NO 0,50 h 407 W/m 8,3 km/h (2 Bft)
10.07.2011 10:00 20,4 C 83 % 1015,6 hPa 0,0 l/m O-NO 0,42 h 458 W/m 12,0 km/h (2 Bft)
10.07.2011 11:00 21,7 C 79 % 1014,8 hPa 0,0 l/m O-NO 1,00 h 830 W/m 13,4 km/h (3 Bft)
10.07.2011 12:00 23,1 C 75 % 1014,2 hPa 0,0 l/m NO 1,00 h 926 W/m 12,5 km/h (3 Bft)
10.07.2011 13:00 24,7 C 68 % 1013,6 hPa 0,0 l/m O 0,75 h 743 W/m 12,6 km/h (3 Bft)
10.07.2011 14:00 25,6 C 60 % 1012,7 hPa 0,0 l/m NO 0,83 h 704 W/m 13,0 km/h (3 Bft)
10.07.2011 15:00 25,1 C 63 % 1012,7 hPa 0,0 l/m N 0,25 h 280 W/m 11,4 km/h (2 Bft)
10.07.2011 16:00 20,3 C 78 % 1013,5 hPa 10,0 l/m W-NW 0,00 h 22 W/m 30,4 km/h (5 Bft)
10.07.2011 17:00 16,8 C 93 % 1014,3 hPa 0,2 l/m N-NO 0,00 h 28 W/m 15,3 km/h (3 Bft)
10.07.2011 18:00 18,2 C 91 % 1014,7 hPa 0,0 l/m SW 0,67 h 376 W/m 5,5 km/h (1 Bft)
10.07.2011 19:00 18,9 C 88 % 1015,0 hPa 0,0 l/m S-SW 0,75 h 209 W/m 7,6 km/h (2 Bft)
10.07.2011 20:00 18,2 C 92 % 1015,0 hPa 0,0 l/m SW 0,25 h 53 W/m 7,6 km/h (2 Bft)
10.07.2011 21:00 17,6 C 94 % 1015,1 hPa 0,0 l/m SW 0,17 h 19 W/m 5,3 km/h (1 Bft)
10.07.2011 22:00 16,9 C 96 % 1015,4 hPa 0,0 l/m W-SW 0,00 h 0 W/m 8,5 km/h (2 Bft)
10.07.2011 23:00 16,9 C 94 % 1015,5 hPa 0,0 l/m W-SW 0,00 h 0 W/m 13,4 km/h (3 Bft)
Min-Datum _ 04.07.11 04.07.11 07.07.11 - - - - 04.07.11
_ Min-Zeit 06:05 16:45 17:25 - - - - 00:10
Minimum _ 9,8 C 28 % 1003,4 hPa - - - - 0,0 km/h (0 Bft)
Max-Datum _ 07.07.11 09.07.11 09.07.11 10.07.11 - 04.07.11 06.07.11 10.07.11
_ Max-Zeit 16:00 06:55 23:05 16:35 - 06:45 13:45 16:35
Maximum _ 28,2 C 99 % 1017,9 hPa 10,0 l/m - 0,08 h 1171 W/m 53,1 km/h
W-NW (7 Bft)
Durchschnitt _ 18,9 C 77 % 1011,5 hPa #45,2 l/m SW #57:15 h 372 W/m 7,0 km/h (2 Bft)